Rock Hill, Mississippi
Current Conditions -  °F | °C
As of 6:53 PM on Tuesday 21 Oct 2014 (Local Time) from KHBG Reporting Station
Clear Clear  
Wind Chill: 65°   Ceiling: Unl
Heat Index: 65°   Visibility: 10mi
Dew Point: 59°   Wind: 3mph
Humidity: 81%   Direction: 340°NNW
Pressure: 30"   Gusts: NA
Location:  31.1558°N, 89.5311°W
Report Text: KHBG 212353Z AUTO 34003KT 10SM CLR 18/15 A3000 RMK AO2 SLP158 T01830150 10267 20183 53002
Loading
Personal Weather Stations






























Interactive Weather Map
Tropical Storm Tracking
New forecast layout! Learn more

10-Day Weather Forecast

Advertisements
Track Severe Weather on mobile